• Join FlightAware (Why Join?)
  • Login
  • US Flag 
10:34PM EDT


 

Airport Tracker/Info


-or-


 

Live Flight TrackerFlight Track Log ✈ SWA718 ✈ 25-Apr-2013 ✈ KHOU - KMCO

Flight Track Log - Related Links

Times and Time Zones

All times are in EDT time to prevent confusion due to time zone crossing. See the SWA718 flight status page for this flight to view local times or setup timezone preferences in your user account.

Time Position Orientation Groundspeed Altitude Reporting Facility
EDT Latitude Longitude Course Direction KTS MPH feet Rate Location/Type
05:14PM 29.5814 -95.2283 148° Southeast 207 238 3,500  Level Houston Center
05:15PM 29.5756 -95.2014 104° East 211 243 4,200 1,920 Climbing Houston Center
05:15PM 29.5939 -95.1594 63° Northeast 266 306 5,500 2,280 Climbing Houston Center
05:16PM 29.6072 -95.1322 61° Northeast 253 291 6,600 3,060 Climbing Houston Center
05:17PM 29.6400 -95.0494 65° Northeast 291 335 10,100 2,940 Climbing Houston Center
05:18PM 29.6556 -94.9211 82° East 346 398 12,700 2,940 Climbing Houston Center
05:19PM 29.6694 -94.7994 82° East 382 440 16,200 2,940 Climbing Houston Center
05:20PM 29.6833 -94.6736 83° East 394 453 18,800 2,220 Climbing Houston Center
05:21PM 29.6983 -94.5414 83° East 416 479 20,900 2,160 Climbing Houston Center
05:22PM 29.7142 -94.3997 83° East 442 509 23,300 2,100 Climbing Houston Center
05:23PM 29.7114 -94.2539 91° East 457 526 25,300 1,860 Climbing Houston Center
05:24PM 29.6933 -94.0917 97° East 477 549 27,200 1,740 Climbing Houston Center
05:25PM 29.6847 -93.9361 94° East 489 563 28,900 1,500 Climbing Houston Center
05:26PM 29.6839 -93.7431 90° East 507 583 30,300 1,500 Climbing Houston Center
05:27PM 29.6825 -93.5764 91° East 522 601 32,100 1,560 Climbing Houston Center
05:28PM 29.6792 -93.4125 91° East 520 598 33,600 1,380 Climbing Houston Center
05:29PM 29.6772 -93.2486 91° East 519 597 35,000 1,260 Climbing Houston Center
05:30PM 29.6750 -93.0483 91° East 525 604 36,300 1,140 Climbing Houston Center
05:31PM 29.6722 -92.8794 91° East 533 613 37,400 840 Climbing Houston Center
05:32PM 29.6694 -92.7100 91° East 536 617 38,100 720 Climbing Houston Center
05:33PM 29.6653 -92.5372 92° East 542 624 38,900 420 Climbing Houston Center
05:34PM 29.6603 -92.3619 92° East 550 633 39,000  Climbing Houston Center
05:35PM 29.6253 -92.1914 103° East 548 631 39,000  Level Houston Center
05:36PM 29.5825 -91.9878 104° East 550 633 39,000  Level Houston Center
05:37PM 29.5486 -91.8192 103° East 544 626 39,000  Level Houston Center
05:39PM 29.5136 -91.6531 104° East 544 626 39,000  Level Houston Center
05:40PM 29.4778 -91.4833 104° East 547 629 39,000  Level Houston Center
05:41PM 29.4417 -91.3147 104° East 546 628 39,000  Level Houston Center
05:42PM 29.3983 -91.1144 104° East 543 625 39,000  Level Houston Center
05:43PM 29.3619 -90.9472 104° East 542 624 39,000  Level Houston Center
05:44PM 29.3256 -90.7806 104° East 543 625 39,000  Level Houston Center
05:45PM 29.2883 -90.6133 104° East 544 626 39,000  Level Houston Center
05:46PM 29.2511 -90.4456 104° East 545 627 39,000  Level Houston Center
05:47PM 29.2069 -90.2439 104° East 547 629 39,000  Level Houston Center
05:48PM 29.1681 -90.0761 105° East 547 629 39,000  Level Houston Center
05:49PM 29.1350 -89.9069 103° East 548 631 39,000  Level Houston Center
05:50PM 29.1006 -89.7386 103° East 548 631 39,000  Level Houston Center
05:51PM 29.0650 -89.5714 104° East 544 626 39,000  Level Houston Center
05:52PM 29.0244 -89.3703 103° East 543 625 39,000  Level Houston Center
05:53PM 28.9903 -89.2075 103° East 533 613 39,000  Level Houston Center
05:54PM 28.9561 -89.0439 103° East 532 612 39,000  Level Houston Center
05:55PM 28.9214 -88.8817 104° East 529 609 39,000  Level Houston Center
05:56PM 28.8861 -88.7203 104° East 526 605 39,000  Level Houston Center
05:57PM 28.8344 -88.5256 107° East 533 613 39,000  Level Houston Center
05:58PM 28.7894 -88.3658 108° East 532 612 39,000  Level Houston Center
05:59PM 28.7453 -88.2036 107° East 536 617 39,000  Level Houston Center
06:00PM 28.6975 -88.0356 108° East 534 615 39,000  Level Houston Center
06:01PM 28.6519 -87.8728 108° East 540 621 39,000  Level Houston Center
06:02PM 28.6064 -87.7114 108° East 540 621 39,000  Level Houston Center
06:03PM 28.5606 -87.5497 108° East 539 620 39,000  Level Houston Center
06:04PM 28.5058 -87.3569 108° East 536 617 39,000  Level Houston Center
06:05PM 28.4672 -87.2206 108° East 507 583 39,000  Level Jacksonville Center
06:06PM 28.4164 -87.0556 109° East 526 605 39,000  Level Jacksonville Center
06:07PM 28.3694 -86.8908 108° East 537 618 39,000  Level Jacksonville Center
06:08PM 28.3222 -86.7311 109° East 531 611 39,000  Level Jacksonville Center
06:09PM 28.2767 -86.5739 108° East 531 611 39,000  Level Jacksonville Center
06:10PM 28.2256 -86.3931 108° East 544 626 39,000  Level Jacksonville Center
06:11PM 28.1756 -86.2311 109° East 544 626 39,000  Level Jacksonville Center
06:12PM 28.1294 -86.0744 108° East 539 620 39,000  Level Jacksonville Center
06:13PM 28.0831 -85.9200 109° East 533 613 39,000  Level Jacksonville Center
06:14PM 28.0328 -85.7492 108° East 538 619 39,000  Level Jacksonville Center
06:17PM 27.9172 -85.3636 109° East 541 623 39,000  Level Miami Center
06:18PM 27.8761 -85.2153 107° East 541 623 39,000  Level Miami Center
06:19PM 27.8625 -85.0525 95° East 535 616 39,000  Level Miami Center
06:20PM 27.8592 -84.8881 91° East 523 602 39,000 -360 Level Miami Center
06:21PM 27.8661 -84.7244 87° East 523 602 38,300 -900 Descending Miami Center
06:22PM 27.8519 -84.5664 96° East 518 596 37,300 -1,020 Descending Miami Center
06:23PM 27.8561 -84.4047 88° East 518 596 36,300 -1,200 Descending Miami Center
06:24PM 27.8481 -84.2425 93° East 518 596 35,000 -1,740 Descending Miami Center
06:25PM 27.8519 -84.0833 88° East 518 596 32,900 -2,220 Descending Miami Center
06:26PM 27.8472 -83.9258 92° East 513 590 30,600 -2,340 Descending Miami Center
06:27PM 27.8467 -83.7686 90° East 508 585 28,300 -1,860 Descending Miami Center
06:28PM 27.8453 -83.6231 91° East 489 563 26,900 -1,380 Descending Miami Center
06:29PM 27.8392 -83.4844 93° East 464 534 25,600 -1,200 Descending Miami Center
06:30PM 27.8453 -83.3464 87° East 443 510 24,500 -1,020 Descending Miami Center
06:31PM 27.8389 -83.2122 93° East 438 504 23,600 -780 Descending Miami Center
06:32PM 27.8364 -83.0806 91° East 427 491 23,000 -300 Descending Miami Center
06:33PM 27.8356 -82.9492 90° East 422 486 23,000 -120 Level Miami Center
06:34PM 27.8308 -82.8175 92° East 422 486 22,800 -420 Descending Miami Center
06:35PM 27.8278 -82.6883 92° East 422 486 22,200 -780 Descending Miami Center
06:36PM 27.8264 -82.5617 91° East 417 480 21,300 -960 Descending Miami Center
06:37PM 27.8564 -82.4411 74° East 401 461 20,300 -1,020 Descending Miami Center
06:38PM 27.8878 -82.3228 73° East 396 456 19,300 -1,200 Descending Miami Center
06:40PM 27.9667 -82.1000 68° East 381 438 17,000 -1,500 Descending Orlando TRACON
06:41PM 28.0000 -81.9833 72° East 371 427 15,000 -2,040 Descending Orlando TRACON
06:42PM 28.0500 -81.8833 60° Northeast 358 412 13,000 -1,260 Descending Orlando TRACON
06:43PM 28.1000 -81.8000 56° Northeast 339 390 12,500 -840 Descending Orlando TRACON
06:44PM 28.1333 -81.7167 66° East 301 346 11,400 -1,320 Descending Orlando TRACON
06:45PM 28.1833 -81.6333 56° Northeast 287 330 9,900 -1,200 Descending Orlando TRACON
06:46PM 28.2333 -81.5667 50° Northeast 272 313 9,000 -480 Descending Orlando TRACON
06:47PM 28.2667 -81.5000 60° Northeast 239 275 9,000  Level Orlando TRACON
06:48PM 28.3167 -81.4500 41° Northeast 238 274 9,000 -480 Level Orlando TRACON
06:49PM 28.3667 -81.4167 30° Northeast 229 264 8,100 -1,380 Descending Orlando TRACON
06:50PM 28.4500 -81.4167 360° North 276 318 6,000 -1,440 Descending Orlando TRACON
06:51PM 28.5167 -81.4000 12° North 254 292 5,000 -840 Descending Orlando TRACON
06:52PM 28.5667 -81.3833 16° North 233 268 4,500 -480 Descending Orlando TRACON
06:53PM 28.5667 -81.3167 90° East 177 204 4,200 -780 Descending Orlando TRACON
06:54PM 28.5500 -81.2833 120° Southeast 147 169 3,000 -1,260 Descending Orlando TRACON
06:55PM 28.5167 -81.3000 204° Southwest 142 163 1,700 -1,320 Descending Orlando TRACON